sensor_id;sensor_type;location;lat;lon;timestamp;temperature;humidity
26164;DHT22;13914;48.178;11.716;2023-09-19T00:01:39;17.10;18.00
26164;DHT22;13914;48.178;11.716;2023-09-19T00:04:09;17.10;18.00
26164;DHT22;13914;48.178;11.716;2023-09-19T00:06:38;17.10;17.90
26164;DHT22;13914;48.178;11.716;2023-09-19T00:09:04;17.10;17.90
26164;DHT22;13914;48.178;11.716;2023-09-19T00:11:30;17.10;18.00
26164;DHT22;13914;48.178;11.716;2023-09-19T00:13:56;17.00;18.00
26164;DHT22;13914;48.178;11.716;2023-09-19T00:16:24;17.00;18.00
26164;DHT22;13914;48.178;11.716;2023-09-19T00:18:51;17.00;18.00
26164;DHT22;13914;48.178;11.716;2023-09-19T00:21:17;17.00;18.00
26164;DHT22;13914;48.178;11.716;2023-09-19T00:23:44;17.00;18.00
26164;DHT22;13914;48.178;11.716;2023-09-19T00:26:10;17.00;18.00
26164;DHT22;13914;48.178;11.716;2023-09-19T00:28:36;17.00;17.90
26164;DHT22;13914;48.178;11.716;2023-09-19T00:31:01;17.00;18.00
26164;DHT22;13914;48.178;11.716;2023-09-19T00:33:27;17.00;17.90
26164;DHT22;13914;48.178;11.716;2023-09-19T00:35:55;17.00;18.00
26164;DHT22;13914;48.178;11.716;2023-09-19T00:38:22;16.90;17.90
26164;DHT22;13914;48.178;11.716;2023-09-19T00:40:52;16.90;17.90
26164;DHT22;13914;48.178;11.716;2023-09-19T00:43:22;16.90;17.90
26164;DHT22;13914;48.178;11.716;2023-09-19T00:45:51;16.90;18.00
26164;DHT22;13914;48.178;11.716;2023-09-19T00:48:18;16.90;17.90
26164;DHT22;13914;48.178;11.716;2023-09-19T00:50:46;16.90;18.00
26164;DHT22;13914;48.178;11.716;2023-09-19T00:53:18;16.90;18.00
26164;DHT22;13914;48.178;11.716;2023-09-19T00:55:46;16.90;18.00
26164;DHT22;13914;48.178;11.716;2023-09-19T00:58:12;16.90;18.00
26164;DHT22;13914;48.178;11.716;2023-09-19T01:00:38;16.90;18.00
26164;DHT22;13914;48.178;11.716;2023-09-19T01:03:05;16.90;18.00
26164;DHT22;13914;48.178;11.716;2023-09-19T01:05:33;16.90;18.00
26164;DHT22;13914;48.178;11.716;2023-09-19T01:07:59;16.90;18.00
26164;DHT22;13914;48.178;11.716;2023-09-19T01:10:24;16.90;18.00
26164;DHT22;13914;48.178;11.716;2023-09-19T01:13:13;16.90;18.00
26164;DHT22;13914;48.178;11.716;2023-09-19T01:21:29;16.90;17.90
26164;DHT22;13914;48.178;11.716;2023-09-19T01:24:47;16.90;18.00
26164;DHT22;13914;48.178;11.716;2023-09-19T01:29:48;16.90;17.90
26164;DHT22;13914;48.178;11.716;2023-09-19T01:32:23;16.80;18.00
26164;DHT22;13914;48.178;11.716;2023-09-19T01:34:51;16.90;17.90
26164;DHT22;13914;48.178;11.716;2023-09-19T01:37:22;16.80;17.90
26164;DHT22;13914;48.178;11.716;2023-09-19T01:40:04;16.80;17.90
26164;DHT22;13914;48.178;11.716;2023-09-19T01:45:42;16.80;18.40
26164;DHT22;13914;48.178;11.716;2023-09-19T01:51:11;16.80;17.90
26164;DHT22;13914;48.178;11.716;2023-09-19T01:56:09;16.80;17.90
26164;DHT22;13914;48.178;11.716;2023-09-19T01:58:48;16.80;17.90
26164;DHT22;13914;48.178;11.716;2023-09-19T02:01:19;16.80;17.90
26164;DHT22;13914;48.178;11.716;2023-09-19T02:03:46;16.80;17.90
26164;DHT22;13914;48.178;11.716;2023-09-19T02:06:16;16.80;17.80
26164;DHT22;13914;48.178;11.716;2023-09-19T02:08:43;16.80;17.90
26164;DHT22;13914;48.178;11.716;2023-09-19T02:11:10;16.80;17.80
26164;DHT22;13914;48.178;11.716;2023-09-19T02:13:36;16.80;17.90
26164;DHT22;13914;48.178;11.716;2023-09-19T02:16:03;16.80;17.90
26164;DHT22;13914;48.178;11.716;2023-09-19T02:18:30;16.80;17.80
26164;DHT22;13914;48.178;11.716;2023-09-19T02:20:56;16.80;17.80
26164;DHT22;13914;48.178;11.716;2023-09-19T02:23:24;16.80;17.80
26164;DHT22;13914;48.178;11.716;2023-09-19T02:25:53;16.80;17.80
26164;DHT22;13914;48.178;11.716;2023-09-19T02:28:19;16.80;17.90
26164;DHT22;13914;48.178;11.716;2023-09-19T02:30:47;16.80;17.90
26164;DHT22;13914;48.178;11.716;2023-09-19T02:33:14;16.80;17.90
26164;DHT22;13914;48.178;11.716;2023-09-19T02:35:40;16.80;18.00
26164;DHT22;13914;48.178;11.716;2023-09-19T02:38:06;16.80;17.90
26164;DHT22;13914;48.178;11.716;2023-09-19T02:40:36;16.80;17.90
26164;DHT22;13914;48.178;11.716;2023-09-19T02:43:02;16.80;17.90
26164;DHT22;13914;48.178;11.716;2023-09-19T02:45:28;16.80;17.80
26164;DHT22;13914;48.178;11.716;2023-09-19T02:47:55;16.80;17.90
26164;DHT22;13914;48.178;11.716;2023-09-19T02:50:21;16.80;17.80
26164;DHT22;13914;48.178;11.716;2023-09-19T02:52:47;16.80;17.90
26164;DHT22;13914;48.178;11.716;2023-09-19T02:55:16;16.80;17.80
26164;DHT22;13914;48.178;11.716;2023-09-19T02:57:46;16.80;17.80
26164;DHT22;13914;48.178;11.716;2023-09-19T03:00:16;16.80;17.80
26164;DHT22;13914;48.178;11.716;2023-09-19T03:02:54;16.80;17.90
26164;DHT22;13914;48.178;11.716;2023-09-19T03:05:20;16.80;17.80
26164;DHT22;13914;48.178;11.716;2023-09-19T03:07:47;16.80;17.80
26164;DHT22;13914;48.178;11.716;2023-09-19T03:10:16;16.80;17.90
26164;DHT22;13914;48.178;11.716;2023-09-19T03:12:43;16.80;17.90
26164;DHT22;13914;48.178;11.716;2023-09-19T03:15:09;16.80;17.80
26164;DHT22;13914;48.178;11.716;2023-09-19T03:17:34;16.80;17.80
26164;DHT22;13914;48.178;11.716;2023-09-19T03:20:01;16.80;17.90
26164;DHT22;13914;48.178;11.716;2023-09-19T03:22:27;16.80;17.90
26164;DHT22;13914;48.178;11.716;2023-09-19T03:24:53;16.70;17.70
26164;DHT22;13914;48.178;11.716;2023-09-19T03:27:19;16.70;17.70
26164;DHT22;13914;48.178;11.716;2023-09-19T03:29:46;16.80;17.80
26164;DHT22;13914;48.178;11.716;2023-09-19T03:32:12;16.80;17.80
26164;DHT22;13914;48.178;11.716;2023-09-19T03:34:38;16.70;17.80
26164;DHT22;13914;48.178;11.716;2023-09-19T03:37:11;16.70;17.80
26164;DHT22;13914;48.178;11.716;2023-09-19T03:39:37;16.70;17.90
26164;DHT22;13914;48.178;11.716;2023-09-19T03:42:03;16.70;17.90
26164;DHT22;13914;48.178;11.716;2023-09-19T03:44:32;16.70;17.90
26164;DHT22;13914;48.178;11.716;2023-09-19T03:46:58;16.70;17.80
26164;DHT22;13914;48.178;11.716;2023-09-19T03:49:24;16.70;17.70
26164;DHT22;13914;48.178;11.716;2023-09-19T03:51:49;16.70;17.80
26164;DHT22;13914;48.178;11.716;2023-09-19T03:54:15;16.70;17.80
26164;DHT22;13914;48.178;11.716;2023-09-19T03:56:42;16.80;17.90
26164;DHT22;13914;48.178;11.716;2023-09-19T03:59:08;16.70;18.00
26164;DHT22;13914;48.178;11.716;2023-09-19T04:01:35;16.70;18.00
26164;DHT22;13914;48.178;11.716;2023-09-19T04:04:00;16.70;18.00
26164;DHT22;13914;48.178;11.716;2023-09-19T04:06:33;16.70;18.00
26164;DHT22;13914;48.178;11.716;2023-09-19T04:09:00;16.70;18.00
26164;DHT22;13914;48.178;11.716;2023-09-19T04:11:27;16.70;18.50
26164;DHT22;13914;48.178;11.716;2023-09-19T04:13:53;16.70;17.90
26164;DHT22;13914;48.178;11.716;2023-09-19T04:16:19;16.70;18.50
26164;DHT22;13914;48.178;11.716;2023-09-19T04:18:45;16.70;17.70
26164;DHT22;13914;48.178;11.716;2023-09-19T04:21:10;16.70;17.80
26164;DHT22;13914;48.178;11.716;2023-09-19T04:23:36;16.70;17.70
26164;DHT22;13914;48.178;11.716;2023-09-19T04:26:01;16.70;17.70
26164;DHT22;13914;48.178;11.716;2023-09-19T04:28:30;16.70;17.90
26164;DHT22;13914;48.178;11.716;2023-09-19T04:30:56;16.70;17.80
26164;DHT22;13914;48.178;11.716;2023-09-19T04:33:25;16.70;17.70
26164;DHT22;13914;48.178;11.716;2023-09-19T04:35:52;16.70;17.90
26164;DHT22;13914;48.178;11.716;2023-09-19T04:38:18;16.70;17.50
26164;DHT22;13914;48.178;11.716;2023-09-19T04:40:45;16.70;17.90
26164;DHT22;13914;48.178;11.716;2023-09-19T04:43:11;16.70;17.80
26164;DHT22;13914;48.178;11.716;2023-09-19T04:45:37;16.60;17.80
26164;DHT22;13914;48.178;11.716;2023-09-19T04:48:04;16.70;17.90
26164;DHT22;13914;48.178;11.716;2023-09-19T04:50:32;16.70;17.80
26164;DHT22;13914;48.178;11.716;2023-09-19T04:52:57;16.60;17.80
26164;DHT22;13914;48.178;11.716;2023-09-19T04:55:24;16.60;18.00
26164;DHT22;13914;48.178;11.716;2023-09-19T04:57:50;16.70;18.00
26164;DHT22;13914;48.178;11.716;2023-09-19T05:00:16;16.70;18.00
26164;DHT22;13914;48.178;11.716;2023-09-19T05:02:44;16.70;18.10
26164;DHT22;13914;48.178;11.716;2023-09-19T05:05:10;16.70;18.10
26164;DHT22;13914;48.178;11.716;2023-09-19T05:07:40;16.70;18.10
26164;DHT22;13914;48.178;11.716;2023-09-19T05:10:06;16.60;18.00
26164;DHT22;13914;48.178;11.716;2023-09-19T05:12:35;16.70;18.20
26164;DHT22;13914;48.178;11.716;2023-09-19T05:15:02;16.70;18.10
26164;DHT22;13914;48.178;11.716;2023-09-19T05:17:32;16.70;18.20
26164;DHT22;13914;48.178;11.716;2023-09-19T05:19:59;16.60;18.10
26164;DHT22;13914;48.178;11.716;2023-09-19T05:22:29;16.70;18.10
26164;DHT22;13914;48.178;11.716;2023-09-19T05:24:54;16.70;18.00
26164;DHT22;13914;48.178;11.716;2023-09-19T05:27:20;16.70;18.10
26164;DHT22;13914;48.178;11.716;2023-09-19T05:29:47;16.70;18.20
26164;DHT22;13914;48.178;11.716;2023-09-19T05:32:14;16.70;18.20
26164;DHT22;13914;48.178;11.716;2023-09-19T05:34:40;16.70;18.10
26164;DHT22;13914;48.178;11.716;2023-09-19T05:37:06;16.70;18.20
26164;DHT22;13914;48.178;11.716;2023-09-19T05:39:33;16.70;18.20
26164;DHT22;13914;48.178;11.716;2023-09-19T05:41:59;16.70;18.20
26164;DHT22;13914;48.178;11.716;2023-09-19T05:44:25;16.70;18.20
26164;DHT22;13914;48.178;11.716;2023-09-19T05:46:51;16.70;18.30
26164;DHT22;13914;48.178;11.716;2023-09-19T05:49:17;16.80;18.30
26164;DHT22;13914;48.178;11.716;2023-09-19T05:51:43;16.70;18.20
26164;DHT22;13914;48.178;11.716;2023-09-19T05:54:08;16.80;18.30
26164;DHT22;13914;48.178;11.716;2023-09-19T05:56:36;16.80;18.20
26164;DHT22;13914;48.178;11.716;2023-09-19T05:59:01;16.80;18.20
26164;DHT22;13914;48.178;11.716;2023-09-19T06:01:29;16.80;18.20
26164;DHT22;13914;48.178;11.716;2023-09-19T06:03:56;16.80;18.10
26164;DHT22;13914;48.178;11.716;2023-09-19T06:06:22;16.90;18.10
26164;DHT22;13914;48.178;11.716;2023-09-19T06:08:49;16.80;18.10
26164;DHT22;13914;48.178;11.716;2023-09-19T06:11:16;16.90;18.20
26164;DHT22;13914;48.178;11.716;2023-09-19T06:13:41;16.90;18.20
26164;DHT22;13914;48.178;11.716;2023-09-19T06:16:07;16.90;17.90
26164;DHT22;13914;48.178;11.716;2023-09-19T06:18:34;16.90;17.90
26164;DHT22;13914;48.178;11.716;2023-09-19T06:21:00;16.90;17.80
26164;DHT22;13914;48.178;11.716;2023-09-19T06:23:26;17.00;18.00
26164;DHT22;13914;48.178;11.716;2023-09-19T06:25:54;17.00;18.00
26164;DHT22;13914;48.178;11.716;2023-09-19T06:28:20;17.00;18.20
26164;DHT22;13914;48.178;11.716;2023-09-19T06:30:50;17.00;18.00
26164;DHT22;13914;48.178;11.716;2023-09-19T06:33:15;17.00;18.00
26164;DHT22;13914;48.178;11.716;2023-09-19T06:35:42;17.00;18.10
26164;DHT22;13914;48.178;11.716;2023-09-19T06:38:10;17.10;18.10
26164;DHT22;13914;48.178;11.716;2023-09-19T06:40:38;17.10;18.20
26164;DHT22;13914;48.178;11.716;2023-09-19T06:43:05;17.10;18.30
26164;DHT22;13914;48.178;11.716;2023-09-19T06:45:30;17.10;18.30
26164;DHT22;13914;48.178;11.716;2023-09-19T06:47:57;17.20;18.20
26164;DHT22;13914;48.178;11.716;2023-09-19T06:50:23;17.10;18.30
26164;DHT22;13914;48.178;11.716;2023-09-19T06:52:49;17.20;18.30
26164;DHT22;13914;48.178;11.716;2023-09-19T06:55:19;17.20;18.30
26164;DHT22;13914;48.178;11.716;2023-09-19T06:57:48;17.30;18.60
26164;DHT22;13914;48.178;11.716;2023-09-19T07:00:14;17.30;18.80
26164;DHT22;13914;48.178;11.716;2023-09-19T07:02:59;17.40;19.00
26164;DHT22;13914;48.178;11.716;2023-09-19T07:05:30;17.50;19.40
26164;DHT22;13914;48.178;11.716;2023-09-19T07:07:56;17.60;19.40
26164;DHT22;13914;48.178;11.716;2023-09-19T07:10:26;17.60;19.40
26164;DHT22;13914;48.178;11.716;2023-09-19T07:15:28;17.70;19.00
26164;DHT22;13914;48.178;11.716;2023-09-19T07:17:56;17.90;19.40
26164;DHT22;13914;48.178;11.716;2023-09-19T07:20:22;17.90;19.30
26164;DHT22;13914;48.178;11.716;2023-09-19T07:22:51;18.00;19.20
26164;DHT22;13914;48.178;11.716;2023-09-19T07:25:17;18.00;19.10
26164;DHT22;13914;48.178;11.716;2023-09-19T07:27:43;18.10;19.00
26164;DHT22;13914;48.178;11.716;2023-09-19T07:30:10;18.10;18.80
26164;DHT22;13914;48.178;11.716;2023-09-19T07:32:37;18.20;18.70
26164;DHT22;13914;48.178;11.716;2023-09-19T07:35:03;18.20;18.70
26164;DHT22;13914;48.178;11.716;2023-09-19T07:37:31;18.30;18.60
26164;DHT22;13914;48.178;11.716;2023-09-19T07:40:02;18.30;18.40
26164;DHT22;13914;48.178;11.716;2023-09-19T07:42:35;18.40;18.50
26164;DHT22;13914;48.178;11.716;2023-09-19T07:45:09;18.40;18.50
26164;DHT22;13914;48.178;11.716;2023-09-19T07:47:45;18.50;18.40
26164;DHT22;13914;48.178;11.716;2023-09-19T07:50:18;18.50;18.40
26164;DHT22;13914;48.178;11.716;2023-09-19T07:52:44;18.60;18.60
26164;DHT22;13914;48.178;11.716;2023-09-19T07:55:13;18.60;18.60
26164;DHT22;13914;48.178;11.716;2023-09-19T07:57:45;18.70;18.60
26164;DHT22;13914;48.178;11.716;2023-09-19T08:00:12;18.70;18.50
26164;DHT22;13914;48.178;11.716;2023-09-19T08:02:39;18.80;18.70
26164;DHT22;13914;48.178;11.716;2023-09-19T08:05:07;18.90;18.40
26164;DHT22;13914;48.178;11.716;2023-09-19T08:07:35;18.90;18.40
26164;DHT22;13914;48.178;11.716;2023-09-19T08:10:02;19.00;18.30
26164;DHT22;13914;48.178;11.716;2023-09-19T08:12:29;19.00;17.90
26164;DHT22;13914;48.178;11.716;2023-09-19T08:14:55;19.10;17.90
26164;DHT22;13914;48.178;11.716;2023-09-19T08:17:21;19.10;18.20
26164;DHT22;13914;48.178;11.716;2023-09-19T08:19:48;19.20;18.20
26164;DHT22;13914;48.178;11.716;2023-09-19T08:22:19;19.20;18.00
26164;DHT22;13914;48.178;11.716;2023-09-19T08:24:45;19.30;18.10
26164;DHT22;13914;48.178;11.716;2023-09-19T08:27:11;19.30;18.00
26164;DHT22;13914;48.178;11.716;2023-09-19T08:29:37;19.40;18.10
26164;DHT22;13914;48.178;11.716;2023-09-19T08:32:04;19.40;18.00
26164;DHT22;13914;48.178;11.716;2023-09-19T08:34:29;19.40;18.00
26164;DHT22;13914;48.178;11.716;2023-09-19T08:36:59;19.50;18.00
26164;DHT22;13914;48.178;11.716;2023-09-19T08:39:25;19.60;17.90
26164;DHT22;13914;48.178;11.716;2023-09-19T08:42:00;19.60;17.80
26164;DHT22;13914;48.178;11.716;2023-09-19T08:44:27;19.70;17.70
26164;DHT22;13914;48.178;11.716;2023-09-19T08:47:00;19.80;17.80
26164;DHT22;13914;48.178;11.716;2023-09-19T08:50:24;19.90;17.70
26164;DHT22;13914;48.178;11.716;2023-09-19T08:52:42;20.00;17.80
26164;DHT22;13914;48.178;11.716;2023-09-19T08:55:11;20.00;17.70
26164;DHT22;13914;48.178;11.716;2023-09-19T08:57:38;20.10;17.10
26164;DHT22;13914;48.178;11.716;2023-09-19T09:00:08;20.20;17.30
26164;DHT22;13914;48.178;11.716;2023-09-19T09:02:37;20.30;17.30
26164;DHT22;13914;48.178;11.716;2023-09-19T09:05:07;20.40;17.30
26164;DHT22;13914;48.178;11.716;2023-09-19T09:07:35;20.50;17.20
26164;DHT22;13914;48.178;11.716;2023-09-19T09:10:02;20.50;17.10
26164;DHT22;13914;48.178;11.716;2023-09-19T09:12:28;20.60;16.80
26164;DHT22;13914;48.178;11.716;2023-09-19T09:14:54;20.70;16.90
26164;DHT22;13914;48.178;11.716;2023-09-19T09:17:22;20.80;16.60
26164;DHT22;13914;48.178;11.716;2023-09-19T09:19:52;20.90;16.70
26164;DHT22;13914;48.178;11.716;2023-09-19T09:22:18;20.90;16.50
26164;DHT22;13914;48.178;11.716;2023-09-19T09:24:56;21.00;16.30
26164;DHT22;13914;48.178;11.716;2023-09-19T09:27:23;21.10;16.30
26164;DHT22;13914;48.178;11.716;2023-09-19T09:29:50;21.20;16.20
26164;DHT22;13914;48.178;11.716;2023-09-19T09:32:19;21.20;15.90
26164;DHT22;13914;48.178;11.716;2023-09-19T09:34:55;21.30;16.00
26164;DHT22;13914;48.178;11.716;2023-09-19T09:37:22;21.40;16.20
26164;DHT22;13914;48.178;11.716;2023-09-19T09:42:36;21.50;15.90
26164;DHT22;13914;48.178;11.716;2023-09-19T09:48:01;21.70;15.80
26164;DHT22;13914;48.178;11.716;2023-09-19T09:50:30;21.80;15.90
26164;DHT22;13914;48.178;11.716;2023-09-19T09:53:29;21.90;15.60
26164;DHT22;13914;48.178;11.716;2023-09-19T09:56:05;22.00;15.60
26164;DHT22;13914;48.178;11.716;2023-09-19T09:58:34;22.00;15.30
26164;DHT22;13914;48.178;11.716;2023-09-19T10:01:02;22.10;15.70
26164;DHT22;13914;48.178;11.716;2023-09-19T10:03:39;22.20;15.10
26164;DHT22;13914;48.178;11.716;2023-09-19T10:06:07;22.30;15.20
26164;DHT22;13914;48.178;11.716;2023-09-19T10:08:57;22.30;14.30
26164;DHT22;13914;48.178;11.716;2023-09-19T10:11:59;22.40;13.50
26164;DHT22;13914;48.178;11.716;2023-09-19T10:14:29;22.40;14.00
26164;DHT22;13914;48.178;11.716;2023-09-19T10:16:57;22.50;14.30
26164;DHT22;13914;48.178;11.716;2023-09-19T10:19:30;22.50;14.20
26164;DHT22;13914;48.178;11.716;2023-09-19T10:22:02;22.50;14.40
26164;DHT22;13914;48.178;11.716;2023-09-19T10:24:29;22.60;14.10
26164;DHT22;13914;48.178;11.716;2023-09-19T10:26:56;22.70;14.20
26164;DHT22;13914;48.178;11.716;2023-09-19T10:29:23;22.70;13.90
26164;DHT22;13914;48.178;11.716;2023-09-19T10:31:52;22.80;13.60
26164;DHT22;13914;48.178;11.716;2023-09-19T10:34:18;22.80;14.10
26164;DHT22;13914;48.178;11.716;2023-09-19T10:36:46;22.90;14.10
26164;DHT22;13914;48.178;11.716;2023-09-19T10:39:15;22.90;13.40
26164;DHT22;13914;48.178;11.716;2023-09-19T10:41:51;23.00;13.80
26164;DHT22;13914;48.178;11.716;2023-09-19T10:44:25;23.10;12.70
26164;DHT22;13914;48.178;11.716;2023-09-19T10:46:51;23.10;12.80
26164;DHT22;13914;48.178;11.716;2023-09-19T10:49:19;23.10;12.40
26164;DHT22;13914;48.178;11.716;2023-09-19T10:51:45;23.20;13.70
26164;DHT22;13914;48.178;11.716;2023-09-19T10:54:14;23.20;13.30
26164;DHT22;13914;48.178;11.716;2023-09-19T10:56:43;23.20;12.60
26164;DHT22;13914;48.178;11.716;2023-09-19T10:59:15;23.30;12.20
26164;DHT22;13914;48.178;11.716;2023-09-19T11:01:44;23.40;13.30
26164;DHT22;13914;48.178;11.716;2023-09-19T11:07:11;23.40;13.10
26164;DHT22;13914;48.178;11.716;2023-09-19T11:09:43;23.50;13.50
26164;DHT22;13914;48.178;11.716;2023-09-19T11:14:56;23.60;13.30
26164;DHT22;13914;48.178;11.716;2023-09-19T11:17:33;23.70;13.00
26164;DHT22;13914;48.178;11.716;2023-09-19T11:23:23;23.90;13.10
26164;DHT22;13914;48.178;11.716;2023-09-19T11:30:37;24.10;12.40
26164;DHT22;13914;48.178;11.716;2023-09-19T11:46:29;24.50;12.10
26164;DHT22;13914;48.178;11.716;2023-09-19T11:49:04;24.50;10.90
26164;DHT22;13914;48.178;11.716;2023-09-19T11:51:41;24.60;9.60
26164;DHT22;13914;48.178;11.716;2023-09-19T11:54:13;24.60;10.10
26164;DHT22;13914;48.178;11.716;2023-09-19T11:56:53;24.70;11.30
26164;DHT22;13914;48.178;11.716;2023-09-19T11:59:23;24.70;11.20
26164;DHT22;13914;48.178;11.716;2023-09-19T12:01:50;24.70;11.60
26164;DHT22;13914;48.178;11.716;2023-09-19T12:04:33;24.80;12.10
26164;DHT22;13914;48.178;11.716;2023-09-19T12:07:09;24.80;12.00
26164;DHT22;13914;48.178;11.716;2023-09-19T12:09:44;24.90;11.00
26164;DHT22;13914;48.178;11.716;2023-09-19T12:12:28;24.90;11.60
26164;DHT22;13914;48.178;11.716;2023-09-19T12:14:55;25.00;10.80
26164;DHT22;13914;48.178;11.716;2023-09-19T12:17:34;25.00;10.90
26164;DHT22;13914;48.178;11.716;2023-09-19T12:20:01;25.00;10.80
26164;DHT22;13914;48.178;11.716;2023-09-19T12:22:46;25.10;11.70
26164;DHT22;13914;48.178;11.716;2023-09-19T12:25:12;25.10;11.80
26164;DHT22;13914;48.178;11.716;2023-09-19T12:27:42;25.10;11.70
26164;DHT22;13914;48.178;11.716;2023-09-19T12:30:09;25.20;11.60
26164;DHT22;13914;48.178;11.716;2023-09-19T12:32:39;25.20;11.80
26164;DHT22;13914;48.178;11.716;2023-09-19T12:35:08;25.20;9.50
26164;DHT22;13914;48.178;11.716;2023-09-19T12:37:44;25.30;9.90
26164;DHT22;13914;48.178;11.716;2023-09-19T12:40:18;25.30;10.50
26164;DHT22;13914;48.178;11.716;2023-09-19T12:42:53;25.30;9.40
26164;DHT22;13914;48.178;11.716;2023-09-19T12:45:23;25.30;10.80
26164;DHT22;13914;48.178;11.716;2023-09-19T12:51:00;25.30;11.20
26164;DHT22;13914;48.178;11.716;2023-09-19T12:53:26;25.40;10.00
26164;DHT22;13914;48.178;11.716;2023-09-19T12:55:58;25.40;10.60
26164;DHT22;13914;48.178;11.716;2023-09-19T12:58:24;25.40;11.00
26164;DHT22;13914;48.178;11.716;2023-09-19T13:00:50;25.40;11.60
26164;DHT22;13914;48.178;11.716;2023-09-19T13:08:27;25.40;10.20
26164;DHT22;13914;48.178;11.716;2023-09-19T13:11:01;25.30;9.70
26164;DHT22;13914;48.178;11.716;2023-09-19T13:13:32;25.40;10.20
26164;DHT22;13914;48.178;11.716;2023-09-19T13:15:58;25.40;9.60
26164;DHT22;13914;48.178;11.716;2023-09-19T13:18:27;25.30;8.90
26164;DHT22;13914;48.178;11.716;2023-09-19T13:21:05;25.30;9.00
26164;DHT22;13914;48.178;11.716;2023-09-19T13:23:35;25.30;9.30
26164;DHT22;13914;48.178;11.716;2023-09-19T13:26:02;25.30;9.30
26164;DHT22;13914;48.178;11.716;2023-09-19T13:28:29;25.20;8.30
26164;DHT22;13914;48.178;11.716;2023-09-19T13:30:55;25.20;8.00
26164;DHT22;13914;48.178;11.716;2023-09-19T13:33:21;25.20;8.50
26164;DHT22;13914;48.178;11.716;2023-09-19T13:35:46;25.10;9.10
26164;DHT22;13914;48.178;11.716;2023-09-19T13:38:13;25.10;9.30
26164;DHT22;13914;48.178;11.716;2023-09-19T13:40:39;25.00;9.50
26164;DHT22;13914;48.178;11.716;2023-09-19T13:43:07;25.00;8.60
26164;DHT22;13914;48.178;11.716;2023-09-19T13:45:33;25.00;9.00
26164;DHT22;13914;48.178;11.716;2023-09-19T13:47:59;24.90;9.50
26164;DHT22;13914;48.178;11.716;2023-09-19T13:50:25;24.90;8.80
26164;DHT22;13914;48.178;11.716;2023-09-19T13:52:51;24.90;8.60
26164;DHT22;13914;48.178;11.716;2023-09-19T13:55:19;24.80;9.10
26164;DHT22;13914;48.178;11.716;2023-09-19T13:57:46;24.80;10.00
26164;DHT22;13914;48.178;11.716;2023-09-19T14:00:15;24.80;9.40
26164;DHT22;13914;48.178;11.716;2023-09-19T14:02:41;24.70;9.00
26164;DHT22;13914;48.178;11.716;2023-09-19T14:05:10;24.70;9.50
26164;DHT22;13914;48.178;11.716;2023-09-19T14:07:40;24.70;9.10
26164;DHT22;13914;48.178;11.716;2023-09-19T14:10:07;24.60;8.50
26164;DHT22;13914;48.178;11.716;2023-09-19T14:12:33;24.60;9.00
26164;DHT22;13914;48.178;11.716;2023-09-19T14:15:00;24.60;9.20
26164;DHT22;13914;48.178;11.716;2023-09-19T14:17:25;24.50;9.80
26164;DHT22;13914;48.178;11.716;2023-09-19T14:19:52;24.50;9.50
26164;DHT22;13914;48.178;11.716;2023-09-19T14:22:17;24.50;9.90
26164;DHT22;13914;48.178;11.716;2023-09-19T14:24:43;24.50;10.40
26164;DHT22;13914;48.178;11.716;2023-09-19T14:27:09;24.50;10.40
26164;DHT22;13914;48.178;11.716;2023-09-19T14:29:35;24.50;10.60
26164;DHT22;13914;48.178;11.716;2023-09-19T14:32:01;24.50;9.70
26164;DHT22;13914;48.178;11.716;2023-09-19T14:34:27;24.50;9.70
26164;DHT22;13914;48.178;11.716;2023-09-19T14:36:53;24.40;9.90
26164;DHT22;13914;48.178;11.716;2023-09-19T14:39:19;24.40;10.10
26164;DHT22;13914;48.178;11.716;2023-09-19T14:41:45;24.40;10.50
26164;DHT22;13914;48.178;11.716;2023-09-19T14:44:11;24.40;10.20
26164;DHT22;13914;48.178;11.716;2023-09-19T14:46:36;24.40;10.30
26164;DHT22;13914;48.178;11.716;2023-09-19T14:49:02;24.40;10.90
26164;DHT22;13914;48.178;11.716;2023-09-19T14:51:30;24.40;10.40
26164;DHT22;13914;48.178;11.716;2023-09-19T14:53:56;24.40;10.70
26164;DHT22;13914;48.178;11.716;2023-09-19T14:56:22;24.40;10.50
26164;DHT22;13914;48.178;11.716;2023-09-19T14:58:49;24.30;9.80
26164;DHT22;13914;48.178;11.716;2023-09-19T15:01:14;24.30;10.50
26164;DHT22;13914;48.178;11.716;2023-09-19T15:03:40;24.30;10.70
26164;DHT22;13914;48.178;11.716;2023-09-19T15:06:08;24.30;10.60
26164;DHT22;13914;48.178;11.716;2023-09-19T15:08:36;24.30;10.40
26164;DHT22;13914;48.178;11.716;2023-09-19T15:11:08;24.30;10.50
26164;DHT22;13914;48.178;11.716;2023-09-19T15:13:35;24.20;10.40
26164;DHT22;13914;48.178;11.716;2023-09-19T15:16:02;24.20;10.20
26164;DHT22;13914;48.178;11.716;2023-09-19T15:18:30;24.20;10.30
26164;DHT22;13914;48.178;11.716;2023-09-19T15:21:03;24.20;10.40
26164;DHT22;13914;48.178;11.716;2023-09-19T15:23:30;24.10;10.40
26164;DHT22;13914;48.178;11.716;2023-09-19T15:25:59;24.20;10.10
26164;DHT22;13914;48.178;11.716;2023-09-19T15:28:27;24.10;10.00
26164;DHT22;13914;48.178;11.716;2023-09-19T15:31:00;24.10;10.10
26164;DHT22;13914;48.178;11.716;2023-09-19T15:33:32;24.10;10.20
26164;DHT22;13914;48.178;11.716;2023-09-19T15:36:32;24.10;10.70
26164;DHT22;13914;48.178;11.716;2023-09-19T15:39:04;24.00;10.10
26164;DHT22;13914;48.178;11.716;2023-09-19T15:41:36;23.90;10.20
26164;DHT22;13914;48.178;11.716;2023-09-19T15:44:03;23.90;10.00
26164;DHT22;13914;48.178;11.716;2023-09-19T15:46:29;23.90;10.20
26164;DHT22;13914;48.178;11.716;2023-09-19T15:48:58;23.90;10.10
26164;DHT22;13914;48.178;11.716;2023-09-19T15:51:25;23.80;10.80
26164;DHT22;13914;48.178;11.716;2023-09-19T15:53:53;23.80;10.10
26164;DHT22;13914;48.178;11.716;2023-09-19T15:56:19;23.80;8.90
26164;DHT22;13914;48.178;11.716;2023-09-19T15:58:52;23.70;9.80
26164;DHT22;13914;48.178;11.716;2023-09-19T16:01:19;23.70;9.60
26164;DHT22;13914;48.178;11.716;2023-09-19T16:03:46;23.70;9.30
26164;DHT22;13914;48.178;11.716;2023-09-19T16:06:14;23.60;10.50
26164;DHT22;13914;48.178;11.716;2023-09-19T16:08:41;23.60;9.90
26164;DHT22;13914;48.178;11.716;2023-09-19T16:11:07;23.50;9.80
26164;DHT22;13914;48.178;11.716;2023-09-19T16:13:34;23.50;9.90
26164;DHT22;13914;48.178;11.716;2023-09-19T16:16:01;23.50;10.10
26164;DHT22;13914;48.178;11.716;2023-09-19T16:18:27;23.40;9.80
26164;DHT22;13914;48.178;11.716;2023-09-19T16:20:52;23.40;9.80
26164;DHT22;13914;48.178;11.716;2023-09-19T16:23:18;23.40;9.90
26164;DHT22;13914;48.178;11.716;2023-09-19T16:25:45;23.40;9.60
26164;DHT22;13914;48.178;11.716;2023-09-19T16:28:12;23.30;9.30